Terminal Aerodrome Forecast
Issued by NWS

Home | Current Version | Previous Version | Text Only | Print | Product List | Glossary On
Versions: 1 2 3 4 5 6 7 8 9 10 11 12 13 14 15 16 17 18 19
000
FTUS44 KLZK 020500
TAFHRO
TAF
KHRO 020533Z 0206/0306 22008G15KT P6SM VCSH SCT100 OVC250
     FM020800 22008G15KT P6SM VCTS SCT050CB BKN100 OVC250
      TEMPO 0209/0212 33015G30KT 3SM TSRA BR BKN030CB OVC080
     FM021200 29008G15KT P6SM VCTS SCT050CB BKN100 OVC250
     FM021600 28010G20KT P6SM VCSH SCT060 BKN100 OVC250
     FM022200 27010G20KT P6SM VCTS SCT050CB BKN100 OVC250=

USA.gov is the U.S. government's official web portal to all federal, state and local government web resources and services.